VBV338 EDDH-EHAM
Flight info
| Callsign | VBV338 |
|---|---|
| Flight time | N/A |
| Altitude | 30000 |
| Route | WSN5C/05 WSN DCT DOBAK DCT EEL |
| Aircraft | B738/M-SDE2E3FGHIRWXY/LB1 |
Departure
| Time | 2026-02-19 12:50 |
|---|---|
| Airport | Hamburg Helmut Schmidt Airport (EDDH) |
Arrival
| Time | N/A |
|---|---|
| Airport | Amsterdam Airport Schiphol (EHAM) |
| Time | Latitude | Longitude | Altitude | Speed | Heading |
|---|---|---|---|---|---|
| 2026-02-19 12:22 | 53.63181 | 10.00393 | 61 ft | 0 kts | 90° |
| 2026-02-19 12:24 | 53.63181 | 10.00394 | 61 ft | 0 kts | 90° |
| 2026-02-19 12:28 | 53.63181 | 10.00395 | 61 ft | 0 kts | 90° |
| 2026-02-19 12:32 | 53.63181 | 10.00396 | 61 ft | 0 kts | 90° |
| 2026-02-19 12:36 | 53.63181 | 10.00397 | 61 ft | 0 kts | 90° |
| 2026-02-19 12:40 | 53.63181 | 10.00398 | 61 ft | 0 kts | 90° |
| 2026-02-19 12:40 | 53.63182 | 10.00351 | 61 ft | 3 kts | 90° |
| 2026-02-19 12:40 | 53.63182 | 10.00335 | 61 ft | 0 kts | 90° |
| 2026-02-19 12:41 | 53.63180 | 10.00342 | 61 ft | 3 kts | 109° |
| 2026-02-19 12:41 | 53.63160 | 10.00347 | 61 ft | 0 kts | 212° |
| 2026-02-19 12:41 | 53.63160 | 10.00346 | 61 ft | 0 kts | 213° |
| 2026-02-19 12:42 | 53.63159 | 10.00346 | 61 ft | 0 kts | 213° |
| 2026-02-19 12:42 | 53.63155 | 10.00342 | 61 ft | 3 kts | 212° |
| 2026-02-19 12:42 | 53.63107 | 10.00272 | 61 ft | 16 kts | 264° |
| 2026-02-19 12:43 | 53.63045 | 10.00101 | 61 ft | 24 kts | 193° |
| 2026-02-19 12:43 | 53.62877 | 10.00019 | 61 ft | 24 kts | 219° |
| 2026-02-19 12:43 | 53.62724 | 9.99893 | 61 ft | 25 kts | 206° |
| 2026-02-19 12:43 | 53.62642 | 9.99758 | 61 ft | 26 kts | 233° |
| 2026-02-19 12:44 | 53.62603 | 9.99457 | 61 ft | 29 kts | 260° |
| 2026-02-19 12:44 | 53.62522 | 9.98727 | 61 ft | 34 kts | 258° |
| 2026-02-19 12:44 | 53.62477 | 9.98323 | 61 ft | 36 kts | 259° |
| 2026-02-19 12:45 | 53.62363 | 9.97968 | 61 ft | 35 kts | 229° |
| 2026-02-19 12:45 | 53.62210 | 9.97664 | 61 ft | 33 kts | 230° |
| 2026-02-19 12:45 | 53.62069 | 9.97370 | 61 ft | 32 kts | 232° |
| 2026-02-19 12:45 | 53.61931 | 9.97086 | 61 ft | 31 kts | 228° |
| 2026-02-19 12:46 | 53.61794 | 9.96814 | 61 ft | 30 kts | 228° |
| 2026-02-19 12:46 | 53.61763 | 9.96748 | 61 ft | 0 kts | 234° |
| 2026-02-19 12:46 | 53.61762 | 9.96746 | 61 ft | 1 kts | 234° |
| 2026-02-19 12:46 | 53.61756 | 9.96733 | 61 ft | 2 kts | 234° |
| 2026-02-19 12:47 | 53.61742 | 9.96703 | 61 ft | 4 kts | 231° |
| 2026-02-19 12:47 | 53.61718 | 9.96650 | 61 ft | 7 kts | 239° |
| 2026-02-19 12:47 | 53.61704 | 9.96555 | 61 ft | 10 kts | 271° |
| 2026-02-19 12:47 | 53.61736 | 9.96445 | 61 ft | 13 kts | 336° |
| 2026-02-19 12:48 | 53.61788 | 9.96425 | 61 ft | 0 kts | 350° |
| 2026-02-19 12:48 | 53.61829 | 9.96412 | 61 ft | 7 kts | 353° |
| 2026-02-19 12:48 | 53.61859 | 9.96432 | 61 ft | 0 kts | 47° |
| 2026-02-19 12:50 | 53.61931 | 9.96577 | 61 ft | 51 kts | 54° |
| 2026-02-19 12:50 | 53.62323 | 9.97401 | 61 ft | 125 kts | 51° |
| 2026-02-19 12:50 | 53.62963 | 9.98756 | 409 ft | 161 kts | 53° |
| 2026-02-19 12:50 | 53.63695 | 10.00199 | 1483 ft | 165 kts | 53° |
| 2026-02-19 12:51 | 53.64475 | 10.01764 | 2200 ft | 187 kts | 54° |
| 2026-02-19 12:51 | 53.65340 | 10.03518 | 2972 ft | 194 kts | 54° |
| 2026-02-19 12:51 | 53.66203 | 10.05274 | 3925 ft | 198 kts | 54° |
| 2026-02-19 12:51 | 53.67097 | 10.07097 | 4529 ft | 205 kts | 54° |
| 2026-02-19 12:52 | 53.67999 | 10.08934 | 5019 ft | 202 kts | 53° |
| 2026-02-19 12:52 | 53.70170 | 10.11819 | 6004 ft | 213 kts | 16° |
| 2026-02-19 12:52 | 53.71688 | 10.11526 | 6523 ft | 231 kts | 346° |
| 2026-02-19 12:53 | 53.73119 | 10.10235 | 7021 ft | 237 kts | 329° |
| 2026-02-19 12:53 | 53.74132 | 10.07996 | 7501 ft | 251 kts | 298° |
| 2026-02-19 12:53 | 53.74587 | 10.05099 | 8031 ft | 257 kts | 285° |
| 2026-02-19 12:53 | 53.74924 | 10.02115 | 8531 ft | 260 kts | 285° |
| 2026-02-19 12:54 | 53.75145 | 9.99059 | 9030 ft | 267 kts | 274° |
| 2026-02-19 12:54 | 53.74963 | 9.95909 | 9531 ft | 271 kts | 260° |
| 2026-02-19 12:54 | 53.74386 | 9.92893 | 10038 ft | 269 kts | 250° |
| 2026-02-19 12:54 | 53.73651 | 9.90005 | 10542 ft | 268 kts | 246° |
| 2026-02-19 12:55 | 53.72874 | 9.87161 | 11043 ft | 265 kts | 246° |
| 2026-02-19 12:55 | 53.72111 | 9.84342 | 11545 ft | 264 kts | 246° |
| 2026-02-19 12:55 | 53.71357 | 9.81512 | 12047 ft | 263 kts | 246° |
| 2026-02-19 12:55 | 53.70616 | 9.78697 | 12548 ft | 261 kts | 247° |
| 2026-02-19 12:56 | 53.69886 | 9.75901 | 13065 ft | 260 kts | 247° |
| 2026-02-19 12:56 | 53.68432 | 9.70289 | 14219 ft | 262 kts | 248° |
| 2026-02-19 12:56 | 53.67706 | 9.67474 | 14795 ft | 262 kts | 248° |
| 2026-02-19 12:57 | 53.66980 | 9.64651 | 15372 ft | 262 kts | 248° |
| 2026-02-19 12:57 | 53.66254 | 9.61824 | 15949 ft | 263 kts | 248° |
| 2026-02-19 12:57 | 53.65511 | 9.58996 | 16525 ft | 264 kts | 245° |
| 2026-02-19 12:57 | 53.64586 | 9.56315 | 17101 ft | 266 kts | 239° |
| 2026-02-19 12:58 | 53.63526 | 9.53749 | 17678 ft | 267 kts | 237° |
| 2026-02-19 12:58 | 53.62425 | 9.51210 | 18256 ft | 268 kts | 236° |
| 2026-02-19 12:58 | 53.61323 | 9.48668 | 18833 ft | 269 kts | 237° |
| 2026-02-19 12:58 | 53.60218 | 9.46117 | 19410 ft | 270 kts | 237° |
| 2026-02-19 12:59 | 53.59114 | 9.43567 | 19985 ft | 271 kts | 237° |
| 2026-02-19 12:59 | 53.58014 | 9.41026 | 20556 ft | 272 kts | 237° |
| 2026-02-19 12:59 | 53.56900 | 9.38450 | 21133 ft | 273 kts | 237° |
| 2026-02-19 12:59 | 53.55783 | 9.35867 | 21709 ft | 274 kts | 237° |
| 2026-02-19 13:00 | 53.54647 | 9.33239 | 22293 ft | 275 kts | 237° |
| 2026-02-19 13:00 | 53.52416 | 9.28030 | 23439 ft | 278 kts | 237° |
| 2026-02-19 13:00 | 53.51284 | 9.25389 | 24016 ft | 279 kts | 237° |
| 2026-02-19 13:01 | 53.50146 | 9.22748 | 24590 ft | 281 kts | 237° |
| 2026-02-19 13:01 | 53.48994 | 9.20083 | 25167 ft | 283 kts | 237° |
| 2026-02-19 13:01 | 53.47829 | 9.17399 | 25744 ft | 285 kts | 237° |
| 2026-02-19 13:01 | 53.46657 | 9.14706 | 26320 ft | 286 kts | 237° |
| 2026-02-19 13:02 | 53.45478 | 9.12003 | 26895 ft | 287 kts | 237° |
| 2026-02-19 13:02 | 53.44301 | 9.09309 | 27470 ft | 286 kts | 237° |
| 2026-02-19 13:02 | 53.43130 | 9.06634 | 28042 ft | 285 kts | 237° |
| 2026-02-19 13:02 | 53.41956 | 9.03955 | 28617 ft | 283 kts | 237° |
| 2026-02-19 13:03 | 53.40791 | 9.01300 | 29191 ft | 281 kts | 237° |
| 2026-02-19 13:03 | 53.39639 | 8.98675 | 29735 ft | 280 kts | 237° |
| 2026-02-19 13:03 | 53.38461 | 8.95993 | 29913 ft | 293 kts | 237° |
| 2026-02-19 13:03 | 53.37229 | 8.93191 | 29937 ft | 307 kts | 237° |
| 2026-02-19 13:04 | 53.35930 | 8.90235 | 29949 ft | 322 kts | 237° |
| 2026-02-19 13:04 | 53.33736 | 8.83471 | 29950 ft | 344 kts | 258° |
| 2026-02-19 13:04 | 53.33344 | 8.79455 | 29950 ft | 356 kts | 265° |
| 2026-02-19 13:05 | 53.33119 | 8.75248 | 29943 ft | 369 kts | 266° |
| 2026-02-19 13:05 | 53.32939 | 8.70893 | 29937 ft | 381 kts | 266° |
| 2026-02-19 13:05 | 53.32725 | 8.66412 | 29931 ft | 393 kts | 266° |
| 2026-02-19 13:05 | 53.32468 | 8.61794 | 29923 ft | 404 kts | 265° |
| 2026-02-19 13:06 | 53.32174 | 8.57066 | 29917 ft | 414 kts | 264° |
| 2026-02-19 13:06 | 53.31502 | 8.47309 | 29907 ft | 430 kts | 264° |
| 2026-02-19 13:07 | 53.30756 | 8.37285 | 29900 ft | 435 kts | 263° |
| 2026-02-19 13:07 | 53.30001 | 8.27341 | 29895 ft | 434 kts | 264° |
| 2026-02-19 13:08 | 53.29260 | 8.17336 | 29888 ft | 434 kts | 264° |
| 2026-02-19 13:08 | 53.28089 | 8.02339 | 29878 ft | 434 kts | 263° |
| 2026-02-19 13:09 | 53.27283 | 7.92321 | 29870 ft | 437 kts | 263° |
| 2026-02-19 13:09 | 53.26457 | 7.82240 | 29868 ft | 438 kts | 263° |
| 2026-02-19 13:10 | 53.25638 | 7.72155 | 29866 ft | 439 kts | 263° |
| 2026-02-19 13:10 | 53.24819 | 7.62047 | 29860 ft | 439 kts | 263° |
| 2026-02-19 13:11 | 53.23959 | 7.51952 | 29851 ft | 440 kts | 262° |
| 2026-02-19 13:11 | 53.23077 | 7.41838 | 29848 ft | 441 kts | 262° |
| 2026-02-19 13:12 | 53.21736 | 7.26632 | 29842 ft | 442 kts | 262° |
| 2026-02-19 13:13 | 53.20862 | 7.16462 | 29837 ft | 443 kts | 263° |
| 2026-02-19 13:13 | 53.19995 | 7.06293 | 29830 ft | 444 kts | 262° |
| 2026-02-19 13:14 | 53.19087 | 6.96095 | 29822 ft | 444 kts | 262° |
| 2026-02-19 13:14 | 53.18162 | 6.85910 | 29811 ft | 445 kts | 262° |
| 2026-02-19 13:15 | 53.17219 | 6.75774 | 29797 ft | 445 kts | 259° |
| 2026-02-19 13:15 | 53.16220 | 6.70908 | 29792 ft | 447 kts | 244° |
| 2026-02-19 13:15 | 53.14468 | 6.66634 | 29795 ft | 448 kts | 229° |
| 2026-02-19 13:16 | 53.09664 | 6.60003 | 29814 ft | 450 kts | 217° |